Time,TemperatureF,DewpointF,PressureIn,WindDirection,WindDirectionDegrees,WindSpeedMPH,WindSpeedGustMPH,Humidity,HourlyPrecipIn,Conditions,Clouds,dailyrainin,SoftwareType,DateUTC
2013-03-23 00:00:00,25.2,17.1,30.04,NNW,338,0.0,0.0,71,0.00,,,0.00,WUHU216HW,2013-03-23 04:00:00,
2013-03-23 00:05:00,25.0,16.9,30.03,NNW,338,0.0,0.0,71,0.00,,,0.00,WUHU216HW,2013-03-23 04:05:00,
2013-03-23 00:10:00,24.8,16.8,30.03,NNW,338,0.0,0.0,71,0.00,,,0.00,WUHU216HW,2013-03-23 04:10:00,
2013-03-23 00:15:00,24.8,16.4,30.03,NNW,338,0.0,0.0,70,0.00,,,0.00,WUHU216HW,2013-03-23 04:15:00,
2013-03-23 00:20:00,24.8,16.4,30.03,NNW,338,0.0,0.0,70,0.00,,,0.00,WUHU216HW,2013-03-23 04:20:00,
2013-03-23 00:25:00,24.7,16.6,30.02,NNW,338,0.0,0.0,71,0.00,,,0.00,WUHU216HW,2013-03-23 04:25:00,
2013-03-23 00:30:00,24.7,16.6,30.02,NNW,338,0.0,0.0,71,0.00,,,0.00,WUHU216HW,2013-03-23 04:30:00,
2013-03-23 00:35:00,24.8,16.8,30.02,NNW,338,0.0,0.0,71,0.00,,,0.00,WUHU216HW,2013-03-23 04:35:00,
2013-03-23 00:40:00,24.8,17.0,30.02,NNW,338,0.0,0.0,72,0.00,,,0.00,WUHU216HW,2013-03-23 04:40:00,
2013-03-23 00:45:00,24.8,17.0,30.02,NNW,338,0.0,0.0,72,0.00,,,0.00,WUHU216HW,2013-03-23 04:45:00,
2013-03-23 00:50:00,25.0,17.2,30.02,NNW,338,0.0,0.0,72,0.00,,,0.00,WUHU216HW,2013-03-23 04:50:00,
2013-03-23 00:55:00,25.0,17.2,30.02,NNW,338,0.0,0.0,72,0.00,,,0.00,WUHU216HW,2013-03-23 04:55:00,
2013-03-23 01:00:00,25.2,17.7,30.02,NNW,338,0.0,0.0,73,0.00,,,0.00,WUHU216HW,2013-03-23 05:00:00,
2013-03-23 01:05:00,25.2,17.4,30.03,NNW,338,0.0,0.0,72,0.00,,,0.00,WUHU216HW,2013-03-23 05:05:00,
2013-03-23 01:10:00,25.2,17.4,30.03,NNW,338,0.0,0.0,72,0.00,,,0.00,WUHU216HW,2013-03-23 05:10:00,
2013-03-23 01:15:00,25.4,17.9,30.02,NNW,338,0.0,0.0,73,0.00,,,0.00,WUHU216HW,2013-03-23 05:15:00,
2013-03-23 01:20:00,25.2,17.4,30.03,NNW,338,0.0,0.0,72,0.00,,,0.00,WUHU216HW,2013-03-23 05:20:00,
2013-03-23 01:25:00,25.0,17.2,30.03,NNW,338,0.0,0.0,72,0.00,,,0.00,WUHU216HW,2013-03-23 05:25:00,
2013-03-23 01:30:00,24.8,17.0,30.02,NNW,338,0.0,0.0,72,0.00,,,0.00,WUHU216HW,2013-03-23 05:30:00,
2013-03-23 01:35:00,24.5,16.8,30.02,NNW,338,0.0,0.0,72,0.00,,,0.00,WUHU216HW,2013-03-23 05:35:00,
2013-03-23 01:40:00,24.3,16.6,30.02,NNW,338,0.0,0.0,72,0.00,,,0.00,WUHU216HW,2013-03-23 05:40:00,
2013-03-23 01:45:00,24.3,16.6,30.02,NNW,338,0.0,0.0,72,0.00,,,0.00,WUHU216HW,2013-03-23 05:45:00,
2013-03-23 01:50:00,24.1,16.4,30.03,NNW,338,0.0,0.0,72,0.00,,,0.00,WUHU216HW,2013-03-23 05:50:00,
2013-03-23 01:55:00,24.1,16.4,30.02,NNW,338,0.0,0.0,72,0.00,,,0.00,WUHU216HW,2013-03-23 05:55:00,
2013-03-23 02:00:00,24.1,16.4,30.02,NNW,338,0.0,0.0,72,0.00,,,0.00,WUHU216HW,2013-03-23 06:00:00,
2013-03-23 02:05:00,23.9,16.5,30.02,NNW,338,0.0,0.0,73,0.00,,,0.00,WUHU216HW,2013-03-23 06:05:00,
2013-03-23 02:10:00,23.9,16.5,30.02,NNW,338,0.0,0.0,73,0.00,,,0.00,WUHU216HW,2013-03-23 06:10:00,
2013-03-23 02:15:00,23.9,16.8,30.02,NNW,338,0.0,0.0,74,0.00,,,0.00,WUHU216HW,2013-03-23 06:15:00,
2013-03-23 02:20:00,23.9,16.5,30.02,NNW,338,0.0,0.0,73,0.00,,,0.00,WUHU216HW,2013-03-23 06:20:00,
2013-03-23 02:25:00,24.1,17.0,30.02,NNW,338,0.0,0.0,74,0.00,,,0.00,WUHU216HW,2013-03-23 06:25:00,
2013-03-23 02:30:00,24.3,17.2,30.02,NNW,338,0.0,0.0,74,0.00,,,0.00,WUHU216HW,2013-03-23 06:30:00,
2013-03-23 02:35:00,24.5,17.4,30.02,NNW,338,0.0,0.0,74,0.00,,,0.00,WUHU216HW,2013-03-23 06:35:00,
2013-03-23 02:40:00,24.5,17.4,30.02,NNW,338,0.0,0.0,74,0.00,,,0.00,WUHU216HW,2013-03-23 06:40:00,
2013-03-23 02:45:00,24.7,17.6,30.02,NNW,338,0.0,0.0,74,0.00,,,0.00,WUHU216HW,2013-03-23 06:45:00,
2013-03-23 02:50:00,24.7,17.6,30.02,NNW,338,0.0,0.0,74,0.00,,,0.00,WUHU216HW,2013-03-23 06:50:00,
2013-03-23 02:55:00,24.7,17.6,30.01,NNW,338,0.0,0.0,74,0.00,,,0.00,WUHU216HW,2013-03-23 06:55:00,
2013-03-23 03:00:00,24.5,17.0,30.01,NNW,338,0.0,0.0,73,0.00,,,0.00,WUHU216HW,2013-03-23 07:00:00,
2013-03-23 03:05:00,24.1,16.7,30.01,NNW,338,0.0,0.0,73,0.00,,,0.00,WUHU216HW,2013-03-23 07:05:00,
2013-03-23 03:10:00,24.1,16.7,30.01,NNW,338,0.0,0.0,73,0.00,,,0.00,WUHU216HW,2013-03-23 07:10:00,
2013-03-23 03:15:00,23.8,16.4,30.01,NNW,338,0.0,0.0,73,0.00,,,0.00,WUHU216HW,2013-03-23 07:15:00,
2013-03-23 03:20:00,23.8,16.7,30.01,NNW,338,0.0,0.0,74,0.00,,,0.00,WUHU216HW,2013-03-23 07:20:00,
2013-03-23 03:25:00,23.8,16.7,30.01,SW,225,0.0,0.0,74,0.00,,,0.00,WUHU216HW,2013-03-23 07:25:00,
2013-03-23 03:30:00,23.9,16.8,30.01,SW,225,0.0,0.4,74,0.00,,,0.00,WUHU216HW,2013-03-23 07:30:00,
2013-03-23 03:35:00,24.1,17.3,30.01,SW,225,0.0,0.4,75,0.00,,,0.00,WUHU216HW,2013-03-23 07:35:00,
2013-03-23 03:40:00,24.3,17.5,30.00,SW,225,0.0,0.2,75,0.00,,,0.00,WUHU216HW,2013-03-23 07:40:00,
2013-03-23 03:45:00,24.1,17.0,30.00,SW,225,0.0,0.0,74,0.00,,,0.00,WUHU216HW,2013-03-23 07:45:00,
2013-03-23 03:50:00,24.1,17.0,30.00,SW,225,0.0,0.0,74,0.00,,,0.00,WUHU216HW,2013-03-23 07:50:00,
2013-03-23 03:55:00,24.1,17.0,30.00,SW,225,0.0,0.0,74,0.00,,,0.00,WUHU216HW,2013-03-23 07:55:00,
2013-03-23 04:00:00,24.1,17.0,30.00,SW,225,0.0,0.0,74,0.00,,,0.00,WUHU216HW,2013-03-23 08:00:00,
2013-03-23 04:05:00,23.9,16.8,30.00,SW,225,0.0,0.0,74,0.00,,,0.00,WUHU216HW,2013-03-23 08:05:00,
2013-03-23 04:10:00,23.9,16.8,29.99,SW,225,0.0,0.0,74,0.00,,,0.00,WUHU216HW,2013-03-23 08:10:00,
2013-03-23 04:15:00,23.9,16.8,30.00,SSW,203,0.0,0.0,74,0.00,,,0.00,WUHU216HW,2013-03-23 08:15:00,
2013-03-23 04:20:00,23.9,16.8,29.99,SSW,203,0.0,0.0,74,0.00,,,0.00,WUHU216HW,2013-03-23 08:20:00,
2013-03-23 04:25:00,23.8,16.7,29.99,SSW,203,0.0,0.0,74,0.00,,,0.00,WUHU216HW,2013-03-23 08:25:00,
2013-03-23 04:30:00,23.8,17.0,29.99,SSW,203,0.0,0.0,75,0.00,,,0.00,WUHU216HW,2013-03-23 08:30:00,
2013-03-23 04:35:00,23.8,16.7,29.99,SSW,203,0.0,0.0,74,0.00,,,0.00,WUHU216HW,2013-03-23 08:35:00,
2013-03-23 04:40:00,23.4,16.3,29.99,SSW,203,0.0,0.0,74,0.00,,,0.00,WUHU216HW,2013-03-23 08:40:00,
2013-03-23 04:45:00,23.4,16.7,29.99,SSW,203,0.0,0.0,75,0.00,,,0.00,WUHU216HW,2013-03-23 08:45:00,
2013-03-23 04:50:00,23.4,16.7,30.00,SSW,203,0.0,0.0,75,0.00,,,0.00,WUHU216HW,2013-03-23 08:50:00,
2013-03-23 04:55:00,23.2,16.5,29.99,SSW,203,0.0,0.0,75,0.00,,,0.00,WUHU216HW,2013-03-23 08:55:00,
2013-03-23 05:00:00,23.4,16.7,29.99,SSW,203,0.0,0.0,75,0.00,,,0.00,WUHU216HW,2013-03-23 09:00:00,
2013-03-23 05:05:00,23.4,16.9,29.99,SSW,203,0.0,0.0,76,0.00,,,0.00,WUHU216HW,2013-03-23 09:05:00,
2013-03-23 05:10:00,23.9,18.1,29.99,SSE,158,0.0,0.0,78,0.00,,,0.00,WUHU216HW,2013-03-23 09:10:00,
2013-03-23 05:15:00,24.1,17.9,29.99,SSE,158,0.0,0.0,77,0.00,,,0.00,WUHU216HW,2013-03-23 09:15:00,
2013-03-23 05:20:00,23.9,17.5,29.99,SSE,158,0.0,0.0,76,0.00,,,0.00,WUHU216HW,2013-03-23 09:20:00,
2013-03-23 05:25:00,23.8,17.0,29.99,SSE,158,0.0,0.0,75,0.00,,,0.00,WUHU216HW,2013-03-23 09:25:00,
2013-03-23 05:30:00,23.4,16.7,29.99,SSE,158,0.0,0.0,75,0.00,,,0.00,WUHU216HW,2013-03-23 09:30:00,
2013-03-23 05:35:00,23.0,16.3,29.99,SSE,158,0.0,0.0,75,0.00,,,0.00,WUHU216HW,2013-03-23 09:35:00,
2013-03-23 05:40:00,22.7,15.9,29.99,SSE,158,0.0,0.0,75,0.00,,,0.00,WUHU216HW,2013-03-23 09:40:00,
2013-03-23 05:45:00,22.7,15.9,29.99,SSE,158,0.0,0.0,75,0.00,,,0.00,WUHU216HW,2013-03-23 09:45:00,
2013-03-23 05:50:00,22.3,15.6,29.99,SSE,158,0.0,0.0,75,0.00,,,0.00,WUHU216HW,2013-03-23 09:50:00,
2013-03-23 05:55:00,22.1,15.4,30.00,South,180,0.0,0.0,75,0.00,,,0.00,WUHU216HW,2013-03-23 09:55:00,
2013-03-23 06:00:00,22.0,15.5,30.00,WSW,248,0.0,0.0,76,0.00,,,0.00,WUHU216HW,2013-03-23 10:00:00,
2013-03-23 06:05:00,22.0,15.5,29.99,WSW,248,0.0,0.0,76,0.00,,,0.00,WUHU216HW,2013-03-23 10:05:00,
2013-03-23 06:10:00,21.8,15.3,30.00,WSW,248,0.0,0.0,76,0.00,,,0.00,WUHU216HW,2013-03-23 10:10:00,
2013-03-23 06:15:00,21.8,15.3,30.00,WSW,248,0.0,0.0,76,0.00,,,0.00,WUHU216HW,2013-03-23 10:15:00,
2013-03-23 06:20:00,21.8,15.3,30.01,WSW,248,0.0,0.0,76,0.00,,,0.00,WUHU216HW,2013-03-23 10:20:00,
2013-03-23 06:25:00,21.8,15.7,30.00,WSW,248,0.0,0.0,77,0.00,,,0.00,WUHU216HW,2013-03-23 10:25:00,
2013-03-23 06:30:00,21.8,15.7,30.00,WSW,248,0.0,0.0,77,0.00,,,0.00,WUHU216HW,2013-03-23 10:30:00,
2013-03-23 06:35:00,21.6,15.5,30.01,WSW,248,0.0,0.0,77,0.00,,,0.00,WUHU216HW,2013-03-23 10:35:00,
2013-03-23 06:40:00,21.6,15.5,30.00,WSW,248,0.0,0.0,77,0.00,,,0.00,WUHU216HW,2013-03-23 10:40:00,
2013-03-23 06:45:00,21.6,15.5,30.01,WSW,248,0.0,0.0,77,0.00,,,0.00,WUHU216HW,2013-03-23 10:45:00,
2013-03-23 06:50:00,21.6,15.5,30.01,WSW,248,0.0,0.0,77,0.00,,,0.00,WUHU216HW,2013-03-23 10:50:00,
2013-03-23 06:55:00,21.4,15.3,30.01,WSW,248,0.0,0.0,77,0.00,,,0.00,WUHU216HW,2013-03-23 10:55:00,
2013-03-23 07:00:00,21.4,15.3,30.01,WSW,248,0.0,0.0,77,0.00,,,0.00,WUHU216HW,2013-03-23 11:00:00,
2013-03-23 07:05:00,21.6,15.5,30.01,WSW,248,0.0,0.0,77,0.00,,,0.00,WUHU216HW,2013-03-23 11:05:00,
2013-03-23 07:10:00,21.4,15.3,30.01,WSW,248,0.0,0.0,77,0.00,,,0.00,WUHU216HW,2013-03-23 11:10:00,
2013-03-23 07:15:00,21.6,15.8,30.02,WSW,248,0.0,0.0,78,0.00,,,0.00,WUHU216HW,2013-03-23 11:15:00,
2013-03-23 07:20:00,22.0,15.9,30.02,WSW,248,0.0,0.0,77,0.00,,,0.00,WUHU216HW,2013-03-23 11:20:00,
2013-03-23 07:25:00,22.0,16.1,30.02,WSW,248,0.0,0.0,78,0.00,,,0.00,WUHU216HW,2013-03-23 11:25:00,
2013-03-23 07:30:00,21.8,15.9,30.02,WSW,248,0.0,0.0,78,0.00,,,0.00,WUHU216HW,2013-03-23 11:30:00,
2013-03-23 07:35:00,21.8,15.9,30.02,WSW,248,0.0,0.0,78,0.00,,,0.00,WUHU216HW,2013-03-23 11:35:00,
2013-03-23 07:40:00,21.6,15.8,30.01,WSW,248,0.0,0.0,78,0.00,,,0.00,WUHU216HW,2013-03-23 11:40:00,
2013-03-23 07:45:00,21.6,15.8,30.01,WSW,248,0.0,0.0,78,0.00,,,0.00,WUHU216HW,2013-03-23 11:45:00,
2013-03-23 07:50:00,21.8,15.9,30.02,WSW,248,0.0,0.0,78,0.00,,,0.00,WUHU216HW,2013-03-23 11:50:00,
2013-03-23 07:55:00,22.0,16.1,30.02,WSW,248,0.0,0.0,78,0.00,,,0.00,WUHU216HW,2013-03-23 11:55:00,
2013-03-23 08:00:00,22.1,16.3,30.02,WSW,248,0.0,0.0,78,0.00,,,0.00,WUHU216HW,2013-03-23 12:00:00,
2013-03-23 08:05:00,22.5,16.7,30.02,WSW,248,0.0,0.0,78,0.00,,,0.00,WUHU216HW,2013-03-23 12:05:00,
2013-03-23 08:10:00,22.7,16.8,30.02,WSW,248,0.0,0.0,78,0.00,,,0.00,WUHU216HW,2013-03-23 12:10:00,
2013-03-23 08:15:00,23.2,17.4,30.02,WSW,248,0.0,0.0,78,0.00,,,0.00,WUHU216HW,2013-03-23 12:15:00,
2013-03-23 08:20:00,23.8,18.3,30.02,WSW,248,0.0,0.0,79,0.00,,,0.00,WUHU216HW,2013-03-23 12:20:00,
2013-03-23 08:25:00,24.5,18.9,30.02,WSW,248,0.0,0.0,79,0.00,,,0.00,WUHU216HW,2013-03-23 12:25:00,
2013-03-23 08:30:00,25.0,19.4,30.02,WSW,248,0.0,0.0,79,0.00,,,0.00,WUHU216HW,2013-03-23 12:30:00,
2013-03-23 08:35:00,25.6,20.0,30.03,WSW,248,0.0,0.0,79,0.00,,,0.00,WUHU216HW,2013-03-23 12:35:00,
2013-03-23 08:40:00,26.1,20.2,30.03,WSW,248,0.0,0.0,78,0.00,,,0.00,WUHU216HW,2013-03-23 12:40:00,
2013-03-23 08:45:00,26.6,20.6,30.03,WSW,248,0.0,0.0,78,0.00,,,0.00,WUHU216HW,2013-03-23 12:45:00,
2013-03-23 08:50:00,27.0,21.0,30.03,WSW,248,0.0,0.0,78,0.00,,,0.00,WUHU216HW,2013-03-23 12:50:00,
2013-03-23 08:55:00,27.7,21.4,30.03,NW,315,1.6,1.6,77,0.00,,,0.00,WUHU216HW,2013-03-23 12:55:00,
2013-03-23 09:00:00,28.1,21.4,30.04,WNW,293,0.9,1.8,76,0.00,,,0.00,WUHU216HW,2013-03-23 13:00:00,
2013-03-23 09:05:00,28.4,21.5,30.04,NW,315,0.4,1.8,75,0.00,,,0.00,WUHU216HW,2013-03-23 13:05:00,
2013-03-23 09:10:00,29.0,22.1,30.04,NW,315,2.2,2.2,75,0.00,,,0.00,WUHU216HW,2013-03-23 13:10:00,
2013-03-23 09:15:00,29.2,21.9,30.04,WNW,293,0.4,2.2,74,0.00,,,0.00,WUHU216HW,2013-03-23 13:15:00,
2013-03-23 09:20:00,29.5,21.9,30.04,NW,315,3.4,3.4,73,0.00,,,0.00,WUHU216HW,2013-03-23 13:20:00,
2013-03-23 09:25:00,29.9,22.2,30.04,WNW,293,0.9,3.4,73,0.00,,,0.00,WUHU216HW,2013-03-23 13:25:00,
2013-03-23 09:30:00,30.4,22.4,30.04,NW,315,0.2,2.0,72,0.00,,,0.00,WUHU216HW,2013-03-23 13:30:00,
2013-03-23 09:35:00,30.8,22.1,30.04,NW,315,0.4,2.0,70,0.00,,,0.00,WUHU216HW,2013-03-23 13:35:00,
2013-03-23 09:40:00,31.3,22.7,30.04,NW,315,1.8,2.5,70,0.00,,,0.00,WUHU216HW,2013-03-23 13:40:00,
2013-03-23 09:45:00,31.7,23.0,30.04,West,270,0.4,2.5,70,0.00,,,0.00,WUHU216HW,2013-03-23 13:45:00,
2013-03-23 09:50:00,32.4,23.8,30.04,West,270,0.4,2.5,70,0.00,,,0.00,WUHU216HW,2013-03-23 13:50:00,
2013-03-23 09:55:00,32.8,23.7,30.04,North,0,0.2,2.5,69,0.00,,,0.00,WUHU216HW,2013-03-23 13:55:00,
2013-03-23 10:00:00,33.5,24.3,30.04,West,270,1.1,1.1,69,0.00,,,0.00,WUHU216HW,2013-03-23 14:00:00,
2013-03-23 10:05:00,33.8,23.9,30.04,NW,315,0.0,1.8,67,0.00,,,0.00,WUHU216HW,2013-03-23 14:05:00,
2013-03-23 10:10:00,34.4,23.4,30.04,WNW,293,0.4,1.8,64,0.00,,,0.00,WUHU216HW,2013-03-23 14:10:00,
2013-03-23 10:15:00,34.7,23.8,30.04,NW,315,0.9,1.6,64,0.00,,,0.00,WUHU216HW,2013-03-23 14:15:00,
2013-03-23 10:20:00,35.1,24.1,30.04,East,90,1.3,1.3,64,0.00,,,0.00,WUHU216HW,2013-03-23 14:20:00,
2013-03-23 10:25:00,35.6,23.6,30.05,ENE,68,0.4,2.0,61,0.00,,,0.00,WUHU216HW,2013-03-23 14:25:00,
2013-03-23 10:30:00,35.8,24.9,30.05,ESE,113,1.6,2.0,64,0.00,,,0.00,WUHU216HW,2013-03-23 14:30:00,
2013-03-23 10:35:00,36.5,24.8,30.05,WSW,248,1.3,1.8,62,0.00,,,0.00,WUHU216HW,2013-03-23 14:35:00,
2013-03-23 10:40:00,36.9,24.0,30.05,WNW,293,1.6,3.4,59,0.00,,,0.00,WUHU216HW,2013-03-23 14:40:00,
2013-03-23 10:45:00,36.9,24.4,30.05,SSW,203,0.9,3.4,60,0.00,,,0.00,WUHU216HW,2013-03-23 14:45:00,
2013-03-23 10:50:00,37.1,24.5,30.05,SW,225,0.4,2.2,60,0.00,,,0.00,WUHU216HW,2013-03-23 14:50:00,
2013-03-23 10:55:00,37.8,25.2,30.05,NNW,338,1.1,2.2,60,0.00,,,0.00,WUHU216HW,2013-03-23 14:55:00,
2013-03-23 11:00:00,37.8,23.9,30.05,South,180,0.4,2.0,57,0.00,,,0.00,WUHU216HW,2013-03-23 15:00:00,
2013-03-23 11:05:00,37.8,24.3,30.05,North,0,0.0,2.0,58,0.00,,,0.00,WUHU216HW,2013-03-23 15:05:00,
2013-03-23 11:10:00,38.2,24.7,30.05,NW,315,1.8,1.8,58,0.00,,,0.00,WUHU216HW,2013-03-23 15:10:00,
2013-03-23 11:15:00,38.9,25.3,30.05,SW,225,1.1,2.2,58,0.00,,,0.00,WUHU216HW,2013-03-23 15:15:00,
2013-03-23 11:20:00,39.4,25.4,30.05,SW,225,0.9,2.2,57,0.00,,,0.00,WUHU216HW,2013-03-23 15:20:00,
2013-03-23 11:25:00,40.1,26.0,30.05,North,0,0.0,1.8,57,0.00,,,0.00,WUHU216HW,2013-03-23 15:25:00,
2013-03-23 11:30:00,40.5,24.6,30.05,WSW,248,1.8,1.8,53,0.00,,,0.00,WUHU216HW,2013-03-23 15:30:00,
2013-03-23 11:35:00,40.0,23.2,30.05,WNW,293,5.4,5.4,51,0.00,,,0.00,WUHU216HW,2013-03-23 15:35:00,
2013-03-23 11:40:00,40.0,23.7,30.05,NW,315,1.8,5.4,52,0.00,,,0.00,WUHU216HW,2013-03-23 15:40:00,
2013-03-23 11:45:00,40.7,24.3,30.05,WSW,248,0.9,2.2,52,0.00,,,0.00,WUHU216HW,2013-03-23 15:45:00,
2013-03-23 11:50:00,41.0,24.2,30.05,NNW,338,0.4,3.1,51,0.00,,,0.00,WUHU216HW,2013-03-23 15:50:00,
2013-03-23 11:55:00,41.0,23.2,30.05,West,270,1.8,3.4,49,0.00,,,0.00,WUHU216HW,2013-03-23 15:55:00,
2013-03-23 12:00:00,40.0,22.2,30.05,West,270,0.4,3.4,49,0.00,,,0.00,WUHU216HW,2013-03-23 16:00:00,
2013-03-23 12:05:00,39.4,23.1,30.04,NNW,338,1.1,2.5,52,0.00,,,0.00,WUHU216HW,2013-03-23 16:05:00,
2013-03-23 12:10:00,40.7,24.3,30.04,NNW,338,1.1,2.0,52,0.00,,,0.00,WUHU216HW,2013-03-23 16:10:00,
2013-03-23 12:15:00,40.7,24.3,30.04,SW,225,1.8,2.0,52,0.00,,,0.00,WUHU216HW,2013-03-23 16:15:00,
2013-03-23 12:20:00,41.6,24.8,30.05,NW,315,3.8,3.8,51,0.00,,,0.00,WUHU216HW,2013-03-23 16:20:00,
2013-03-23 12:25:00,42.1,24.3,30.04,NNW,338,1.1,3.8,49,0.00,,,0.00,WUHU216HW,2013-03-23 16:25:00,
2013-03-23 12:30:00,42.1,24.8,30.05,North,0,0.4,1.6,50,0.00,,,0.00,WUHU216HW,2013-03-23 16:30:00,
2013-03-23 12:35:00,42.5,25.2,30.04,SE,135,1.1,1.8,50,0.00,,,0.00,WUHU216HW,2013-03-23 16:35:00,
2013-03-23 12:40:00,42.7,24.3,30.04,NNW,338,0.9,2.2,48,0.00,,,0.00,WUHU216HW,2013-03-23 16:40:00,
2013-03-23 12:45:00,42.7,24.8,30.04,NNW,338,2.7,2.7,49,0.00,,,0.00,WUHU216HW,2013-03-23 16:45:00,
2013-03-23 12:50:00,42.8,25.0,30.04,West,270,0.9,2.7,49,0.00,,,0.00,WUHU216HW,2013-03-23 16:50:00,
2013-03-23 12:55:00,43.7,25.3,30.04,East,90,1.1,2.7,48,0.00,,,0.00,WUHU216HW,2013-03-23 16:55:00,
2013-03-23 13:00:00,44.3,25.2,30.03,WNW,293,0.0,2.9,47,0.00,,,0.00,WUHU216HW,2013-03-23 17:00:00,
2013-03-23 13:05:00,45.0,25.4,30.03,NNW,338,2.5,2.9,46,0.00,,,0.00,WUHU216HW,2013-03-23 17:05:00,
2013-03-23 13:10:00,44.3,24.1,30.03,ENE,68,0.9,3.4,45,0.00,,,0.00,WUHU216HW,2013-03-23 17:10:00,
2013-03-23 13:15:00,44.1,25.1,30.03,NW,315,1.3,3.4,47,0.00,,,0.00,WUHU216HW,2013-03-23 17:15:00,
2013-03-23 13:20:00,44.6,24.5,30.03,ENE,68,0.2,2.9,45,0.00,,,0.00,WUHU216HW,2013-03-23 17:20:00,
2013-03-23 13:25:00,44.5,24.3,30.03,North,0,2.5,4.3,45,0.00,,,0.00,WUHU216HW,2013-03-23 17:25:00,
2013-03-23 13:30:00,45.0,25.4,30.02,SSW,203,2.5,4.3,46,0.00,,,0.00,WUHU216HW,2013-03-23 17:30:00,
2013-03-23 13:35:00,45.7,24.4,30.02,ENE,68,2.2,2.7,43,0.00,,,0.00,WUHU216HW,2013-03-23 17:35:00,
2013-03-23 13:40:00,44.5,23.2,30.02,ENE,68,1.6,2.2,43,0.00,,,0.00,WUHU216HW,2013-03-23 17:40:00,
2013-03-23 13:45:00,44.3,24.1,30.02,East,90,1.1,1.6,45,0.00,,,0.00,WUHU216HW,2013-03-23 17:45:00,
2013-03-23 13:50:00,44.8,24.1,30.02,SE,135,0.4,2.5,44,0.00,,,0.00,WUHU216HW,2013-03-23 17:50:00,
2013-03-23 13:55:00,45.4,24.6,30.02,West,270,0.2,5.1,44,0.00,,,0.00,WUHU216HW,2013-03-23 17:55:00,
2013-03-23 14:00:00,45.7,24.4,30.02,NNW,338,0.4,5.1,43,0.00,,,0.00,WUHU216HW,2013-03-23 18:00:00,
2013-03-23 14:05:00,44.8,23.6,30.02,ESE,113,2.5,4.7,43,0.00,,,0.00,WUHU216HW,2013-03-23 18:05:00,
2013-03-23 14:10:00,45.4,24.6,30.02,NW,315,4.3,4.3,44,0.00,,,0.00,WUHU216HW,2013-03-23 18:10:00,
2013-03-23 14:15:00,44.8,24.7,30.02,WSW,248,0.2,6.3,45,0.00,,,0.00,WUHU216HW,2013-03-23 18:15:00,
2013-03-23 14:20:00,45.5,24.2,30.02,NNW,338,3.8,6.3,43,0.00,,,0.00,WUHU216HW,2013-03-23 18:20:00,
2013-03-23 14:25:00,45.7,23.9,30.02,WNW,293,0.9,4.9,42,0.00,,,0.00,WUHU216HW,2013-03-23 18:25:00,
2013-03-23 14:30:00,45.7,23.9,30.02,WSW,248,2.0,5.4,42,0.00,,,0.00,WUHU216HW,2013-03-23 18:30:00,
2013-03-23 14:35:00,45.7,23.9,30.02,NNW,338,0.2,5.4,42,0.00,,,0.00,WUHU216HW,2013-03-23 18:35:00,
2013-03-23 14:40:00,45.9,24.0,30.02,WSW,248,3.1,3.1,42,0.00,,,0.00,WUHU216HW,2013-03-23 18:40:00,
2013-03-23 14:45:00,45.9,23.0,30.02,West,270,1.6,4.3,40,0.00,,,0.00,WUHU216HW,2013-03-23 18:45:00,
2013-03-23 14:50:00,45.9,23.5,30.01,WSW,248,1.8,4.3,41,0.00,,,0.00,WUHU216HW,2013-03-23 18:50:00,
2013-03-23 14:55:00,46.4,23.4,30.01,ESE,113,1.6,2.5,40,0.00,,,0.00,WUHU216HW,2013-03-23 18:55:00,
2013-03-23 15:00:00,46.8,23.8,30.01,WNW,293,1.8,5.4,40,0.00,,,0.00,WUHU216HW,2013-03-23 19:00:00,
2013-03-23 15:05:00,47.0,23.9,30.01,NW,315,4.5,5.4,40,0.00,,,0.00,WUHU216HW,2013-03-23 19:05:00,
2013-03-23 15:10:00,46.8,24.9,30.01,NW,315,1.1,4.5,42,0.00,,,0.00,WUHU216HW,2013-03-23 19:10:00,
2013-03-23 15:15:00,47.7,24.6,30.01,West,270,1.1,3.1,40,0.00,,,0.00,WUHU216HW,2013-03-23 19:15:00,
2013-03-23 15:20:00,47.5,23.7,30.00,ESE,113,0.2,4.7,39,0.00,,,0.00,WUHU216HW,2013-03-23 19:20:00,
2013-03-23 15:25:00,47.2,24.0,30.00,WNW,293,2.5,4.7,40,0.00,,,0.00,WUHU216HW,2013-03-23 19:25:00,
2013-03-23 15:30:00,47.3,24.2,30.00,NNW,338,1.1,3.4,40,0.00,,,0.00,WUHU216HW,2013-03-23 19:30:00,
2013-03-23 15:35:00,47.5,23.7,30.00,NW,315,0.9,3.4,39,0.00,,,0.00,WUHU216HW,2013-03-23 19:35:00,
2013-03-23 15:40:00,46.8,24.3,30.00,ENE,68,0.7,3.4,41,0.00,,,0.00,WUHU216HW,2013-03-23 19:40:00,
2013-03-23 15:46:00,47.2,23.4,30.00,NNE,23,2.9,3.4,39,0.00,,,0.00,WUHU216HW,2013-03-23 19:46:00,
2013-03-23 15:51:00,46.6,21.6,30.00,NNW,338,4.0,6.0,37,0.00,,,0.00,WUHU216HW,2013-03-23 19:51:00,
2013-03-23 15:56:00,46.1,23.0,30.00,WNW,293,1.3,6.0,40,0.00,,,0.00,WUHU216HW,2013-03-23 19:56:00,
2013-03-23 16:01:00,46.8,23.8,30.00,East,90,3.6,4.3,40,0.00,,,0.00,WUHU216HW,2013-03-23 20:01:00,
2013-03-23 16:06:00,47.2,23.4,30.00,North,0,3.6,3.8,39,0.00,,,0.00,WUHU216HW,2013-03-23 20:06:00,
2013-03-23 16:11:00,47.5,24.4,29.99,West,270,4.0,4.0,40,0.00,,,0.00,WUHU216HW,2013-03-23 20:11:00,
2013-03-23 16:15:00,48.2,24.4,30.00,NNW,338,2.0,4.0,39,0.00,,,0.00,WUHU216HW,2013-03-23 20:15:00,
2013-03-23 16:20:00,48.2,24.4,30.00,WSW,248,0.4,4.0,39,0.00,,,0.00,WUHU216HW,2013-03-23 20:20:00,
2013-03-23 16:26:00,48.2,24.4,30.00,NW,315,0.9,2.9,39,0.00,,,0.00,WUHU216HW,2013-03-23 20:26:00,
2013-03-23 16:31:00,47.3,23.6,30.00,West,270,0.7,4.7,39,0.00,,,0.00,WUHU216HW,2013-03-23 20:31:00,
2013-03-23 16:36:00,47.2,22.7,30.00,ESE,113,4.9,4.9,38,0.00,,,0.00,WUHU216HW,2013-03-23 20:36:00,
2013-03-23 16:41:00,46.4,22.8,30.01,ENE,68,0.4,4.9,39,0.00,,,0.00,WUHU216HW,2013-03-23 20:41:00,
2013-03-23 16:46:00,46.1,23.0,30.00,WNW,293,4.0,4.0,40,0.00,,,0.00,WUHU216HW,2013-03-23 20:46:00,
2013-03-23 16:51:00,46.4,23.4,30.00,NNW,338,0.7,4.0,40,0.00,,,0.00,WUHU216HW,2013-03-23 20:51:00,
2013-03-23 16:56:00,46.3,23.2,30.00,ENE,68,0.4,2.9,40,0.00,,,0.00,WUHU216HW,2013-03-23 20:56:00,
2013-03-23 17:01:00,46.8,23.8,30.01,SSE,158,0.4,2.9,40,0.00,,,0.00,WUHU216HW,2013-03-23 21:01:00,
2013-03-23 17:06:00,47.0,23.2,30.01,NNE,23,1.3,1.8,39,0.00,,,0.00,WUHU216HW,2013-03-23 21:06:00,
2013-03-23 17:11:00,47.2,23.4,30.01,West,270,0.9,2.0,39,0.00,,,0.00,WUHU216HW,2013-03-23 21:11:00,
2013-03-23 17:16:00,47.5,23.0,30.01,West,270,1.1,4.0,38,0.00,,,0.00,WUHU216HW,2013-03-23 21:16:00,
2013-03-23 17:21:00,46.8,23.0,30.01,WNW,293,1.8,5.8,39,0.00,,,0.00,WUHU216HW,2013-03-23 21:21:00,
2013-03-23 17:26:00,46.8,23.8,30.01,SE,135,2.5,5.8,40,0.00,,,0.00,WUHU216HW,2013-03-23 21:26:00,
2013-03-23 17:31:00,46.6,22.9,30.00,NNW,338,2.7,2.7,39,0.00,,,0.00,WUHU216HW,2013-03-23 21:31:00,
2013-03-23 17:36:00,47.0,23.2,30.01,North,0,2.7,4.7,39,0.00,,,0.00,WUHU216HW,2013-03-23 21:36:00,
2013-03-23 17:41:00,46.6,22.9,30.00,West,270,1.6,4.7,39,0.00,,,0.00,WUHU216HW,2013-03-23 21:41:00,
2013-03-23 17:46:00,46.6,22.9,30.00,WNW,293,1.8,4.7,39,0.00,,,0.00,WUHU216HW,2013-03-23 21:46:00,
2013-03-23 17:51:00,46.4,22.8,30.01,NNW,338,0.2,4.7,39,0.00,,,0.00,WUHU216HW,2013-03-23 21:51:00,
2013-03-23 17:56:00,46.3,23.2,30.01,WNW,293,0.2,2.9,40,0.00,,,0.00,WUHU216HW,2013-03-23 21:56:00,
2013-03-23 18:01:00,46.1,23.0,30.01,NW,315,0.7,3.4,40,0.00,,,0.00,WUHU216HW,2013-03-23 22:01:00,
2013-03-23 18:06:00,46.1,23.0,30.01,NNW,338,1.6,3.4,40,0.00,,,0.00,WUHU216HW,2013-03-23 22:06:00,
2013-03-23 18:11:00,45.7,22.8,30.01,NNW,338,1.8,2.5,40,0.00,,,0.00,WUHU216HW,2013-03-23 22:11:00,
2013-03-23 18:16:00,45.5,23.1,30.01,NW,315,1.8,2.5,41,0.00,,,0.00,WUHU216HW,2013-03-23 22:16:00,
2013-03-23 18:21:00,45.4,23.0,30.01,NW,315,1.6,2.5,41,0.00,,,0.00,WUHU216HW,2013-03-23 22:21:00,
2013-03-23 18:26:00,45.4,23.0,30.02,NNW,338,1.8,3.4,41,0.00,,,0.00,WUHU216HW,2013-03-23 22:26:00,
2013-03-23 18:31:00,45.0,22.7,30.02,WNW,293,0.4,3.4,41,0.00,,,0.00,WUHU216HW,2013-03-23 22:31:00,
2013-03-23 18:36:00,44.6,22.3,30.02,West,270,2.0,2.0,41,0.00,,,0.00,WUHU216HW,2013-03-23 22:36:00,
2013-03-23 18:41:00,44.3,22.5,30.01,East,90,1.1,2.0,42,0.00,,,0.00,WUHU216HW,2013-03-23 22:41:00,
2013-03-23 18:46:00,44.1,22.4,30.01,WNW,293,1.1,2.0,42,0.00,,,0.00,WUHU216HW,2013-03-23 22:46:00,
2013-03-23 18:52:00,43.9,22.2,30.01,NNW,338,0.4,3.4,42,0.00,,,0.00,WUHU216HW,2013-03-23 22:52:00,
2013-03-23 18:57:00,43.6,22.4,30.01,NW,315,0.4,3.4,43,0.00,,,0.00,WUHU216HW,2013-03-23 22:57:00,
2013-03-23 19:02:00,43.2,22.7,30.01,East,90,0.4,2.9,44,0.00,,,0.00,WUHU216HW,2013-03-23 23:02:00,
2013-03-23 19:07:00,42.7,22.7,30.01,ESE,113,0.9,2.9,45,0.00,,,0.00,WUHU216HW,2013-03-23 23:07:00,
2013-03-23 19:12:00,42.1,23.2,30.01,East,90,2.2,2.2,47,0.00,,,0.00,WUHU216HW,2013-03-23 23:12:00,
2013-03-23 19:17:00,41.6,23.2,30.01,East,90,1.1,2.2,48,0.00,,,0.00,WUHU216HW,2013-03-23 23:17:00,
2013-03-23 19:22:00,41.4,23.0,30.01,East,90,0.4,2.5,48,0.00,,,0.00,WUHU216HW,2013-03-23 23:22:00,
2013-03-23 19:27:00,41.0,23.2,30.01,NW,315,1.6,2.5,49,0.00,,,0.00,WUHU216HW,2013-03-23 23:27:00,
2013-03-23 19:32:00,40.5,22.8,30.01,East,90,0.0,2.5,49,0.00,,,0.00,WUHU216HW,2013-03-23 23:32:00,
2013-03-23 19:37:00,40.1,23.0,30.01,ENE,68,0.0,0.9,50,0.00,,,0.00,WUHU216HW,2013-03-23 23:37:00,
2013-03-23 19:42:00,39.8,22.6,30.01,North,0,0.4,1.1,50,0.00,,,0.00,WUHU216HW,2013-03-23 23:42:00,
2013-03-23 19:47:00,39.6,22.9,30.01,ENE,68,0.4,1.1,51,0.00,,,0.00,WUHU216HW,2013-03-23 23:47:00,
2013-03-23 19:52:00,39.4,22.8,30.01,ENE,68,0.0,1.1,51,0.00,,,0.00,WUHU216HW,2013-03-23 23:52:00,
2013-03-23 19:57:00,39.1,23.3,30.02,East,90,2.2,3.8,53,0.00,,,0.00,WUHU216HW,2013-03-23 23:57:00,
2013-03-23 20:02:00,38.7,23.0,30.02,ENE,68,0.2,3.8,53,0.00,,,0.00,WUHU216HW,2013-03-24 00:02:00,
2013-03-23 20:07:00,38.5,23.2,30.03,ENE,68,0.2,1.6,54,0.00,,,0.00,WUHU216HW,2013-03-24 00:07:00,
2013-03-23 20:13:00,38.5,23.2,30.03,East,90,0.0,1.6,54,0.00,,,0.00,WUHU216HW,2013-03-24 00:13:00,
2013-03-23 20:18:00,38.2,22.9,30.04,East,90,0.9,0.9,54,0.00,,,0.00,WUHU216HW,2013-03-24 00:18:00,
2013-03-23 20:23:00,37.8,23.4,30.04,NE,45,0.2,1.1,56,0.00,,,0.00,WUHU216HW,2013-03-24 00:23:00,
2013-03-23 20:28:00,37.8,23.4,30.04,East,90,0.7,1.1,56,0.00,,,0.00,WUHU216HW,2013-03-24 00:28:00,
2013-03-23 20:33:00,37.4,23.1,30.04,ESE,113,1.1,1.1,56,0.00,,,0.00,WUHU216HW,2013-03-24 00:33:00,
2013-03-23 20:38:00,37.4,23.1,30.04,East,90,0.2,1.1,56,0.00,,,0.00,WUHU216HW,2013-03-24 00:38:00,
2013-03-23 20:43:00,37.3,23.4,30.04,ESE,113,2.0,3.4,57,0.00,,,0.00,WUHU216HW,2013-03-24 00:43:00,
2013-03-23 20:48:00,37.1,23.2,30.04,ENE,68,1.1,3.4,57,0.00,,,0.00,WUHU216HW,2013-03-24 00:48:00,
2013-03-23 20:53:00,37.1,23.2,30.04,ESE,113,1.6,1.6,57,0.00,,,0.00,WUHU216HW,2013-03-24 00:53:00,
2013-03-23 20:58:00,36.9,23.5,30.03,ENE,68,2.0,2.0,58,0.00,,,0.00,WUHU216HW,2013-03-24 00:58:00,
2013-03-23 21:03:00,36.7,22.9,30.03,ESE,113,0.0,2.0,57,0.00,,,0.00,WUHU216HW,2013-03-24 01:03:00,
2013-03-23 21:08:00,36.5,22.8,30.04,ENE,68,0.9,1.1,57,0.00,,,0.00,WUHU216HW,2013-03-24 01:08:00,
2013-03-23 21:13:00,36.4,22.6,30.04,NNW,338,0.0,0.9,57,0.00,,,0.00,WUHU216HW,2013-03-24 01:13:00,
2013-03-23 21:18:00,36.2,22.9,30.04,NE,45,0.2,0.9,58,0.00,,,0.00,WUHU216HW,2013-03-24 01:18:00,
2013-03-23 21:23:00,36.0,22.7,30.04,North,0,0.2,0.9,58,0.00,,,0.00,WUHU216HW,2013-03-24 01:23:00,
2013-03-23 21:28:00,35.8,23.4,30.04,ENE,68,0.9,0.9,60,0.00,,,0.00,WUHU216HW,2013-03-24 01:28:00,
2013-03-23 21:33:00,35.8,23.4,30.04,NE,45,0.2,1.8,60,0.00,,,0.00,WUHU216HW,2013-03-24 01:33:00,
2013-03-23 21:38:00,35.8,23.0,30.04,East,90,0.4,1.8,59,0.00,,,0.00,WUHU216HW,2013-03-24 01:38:00,
2013-03-23 21:43:00,35.6,22.8,30.04,East,90,0.4,1.8,59,0.00,,,0.00,WUHU216HW,2013-03-24 01:43:00,
2013-03-23 21:48:00,35.5,23.0,30.04,East,90,0.0,1.1,60,0.00,,,0.00,WUHU216HW,2013-03-24 01:48:00,
2013-03-23 21:53:00,35.1,22.7,30.04,East,90,0.4,1.1,60,0.00,,,0.00,WUHU216HW,2013-03-24 01:53:00,
2013-03-23 21:58:00,34.9,22.5,30.04,ENE,68,0.0,1.6,60,0.00,,,0.00,WUHU216HW,2013-03-24 01:58:00,
2013-03-23 22:03:00,34.7,22.3,30.04,East,90,0.4,1.8,60,0.00,,,0.00,WUHU216HW,2013-03-24 02:03:00,
2013-03-23 22:08:00,34.6,21.7,30.04,ENE,68,1.8,1.8,59,0.00,,,0.00,WUHU216HW,2013-03-24 02:08:00,
2013-03-23 22:13:00,34.6,22.5,30.04,NE,45,0.0,1.8,61,0.00,,,0.00,WUHU216HW,2013-03-24 02:13:00,
2013-03-23 22:18:00,34.4,22.3,30.04,East,90,0.4,1.1,61,0.00,,,0.00,WUHU216HW,2013-03-24 02:18:00,
2013-03-23 22:22:00,34.2,21.8,30.04,East,90,0.0,0.4,60,0.00,,,0.00,WUHU216HW,2013-03-24 02:22:00,
2013-03-23 22:28:00,33.8,21.4,30.04,ENE,68,0.4,0.4,60,0.00,,,0.00,WUHU216HW,2013-03-24 02:28:00,
2013-03-23 22:33:00,33.5,21.1,30.04,ENE,68,0.0,0.4,60,0.00,,,0.00,WUHU216HW,2013-03-24 02:33:00,
2013-03-23 22:38:00,33.3,21.0,30.04,NE,45,0.0,0.4,60,0.00,,,0.00,WUHU216HW,2013-03-24 02:38:00,
2013-03-23 22:43:00,33.3,21.0,30.04,NW,315,0.0,0.9,60,0.00,,,0.00,WUHU216HW,2013-03-24 02:43:00,
2013-03-23 22:48:00,33.3,21.7,30.04,NNW,338,1.3,1.3,62,0.00,,,0.00,WUHU216HW,2013-03-24 02:48:00,
2013-03-23 22:53:00,33.3,21.7,30.04,ENE,68,0.0,1.3,62,0.00,,,0.00,WUHU216HW,2013-03-24 02:53:00,
2013-03-23 22:58:00,33.1,21.2,30.04,East,90,0.9,0.9,61,0.00,,,0.00,WUHU216HW,2013-03-24 02:58:00,
2013-03-23 23:03:00,32.9,21.0,30.04,East,90,0.0,0.9,61,0.00,,,0.00,WUHU216HW,2013-03-24 03:03:00,
2013-03-23 23:08:00,32.8,20.8,30.04,East,90,0.0,0.2,61,0.00,,,0.00,WUHU216HW,2013-03-24 03:08:00,
2013-03-23 23:13:00,32.6,21.0,30.04,NNE,23,0.0,0.2,62,0.00,,,0.00,WUHU216HW,2013-03-24 03:13:00,
2013-03-23 23:18:00,32.4,21.6,30.04,ENE,68,0.0,0.4,64,0.00,,,0.00,WUHU216HW,2013-03-24 03:18:00,
2013-03-23 23:23:00,32.4,21.3,30.04,NE,45,0.0,0.4,63,0.00,,,0.00,WUHU216HW,2013-03-24 03:23:00,
2013-03-23 23:28:00,32.2,21.4,30.04,NE,45,0.0,0.4,64,0.00,,,0.00,WUHU216HW,2013-03-24 03:28:00,
2013-03-23 23:33:00,32.0,20.9,30.03,ENE,68,0.0,0.0,63,0.00,,,0.00,WUHU216HW,2013-03-24 03:33:00,
2013-03-23 23:38:00,32.0,21.6,30.03,ENE,68,0.0,0.0,65,0.00,,,0.00,WUHU216HW,2013-03-24 03:38:00,
2013-03-23 23:43:00,31.9,21.8,30.03,ENE,68,0.0,0.0,66,0.00,,,0.00,WUHU216HW,2013-03-24 03:43:00,
2013-03-23 23:48:00,31.9,21.4,30.02,ENE,68,0.0,0.0,65,0.00,,,0.00,WUHU216HW,2013-03-24 03:48:00,
2013-03-23 23:53:00,31.9,21.8,30.02,ENE,68,0.9,0.9,66,0.00,,,0.00,WUHU216HW,2013-03-24 03:53:00,
2013-03-23 23:58:00,31.7,21.2,30.02,ENE,68,0.0,0.9,65,0.00,,,0.00,WUHU216HW,2013-03-24 03:58:00,